createdAt,value
2022-12-23T00:00:27.364Z,91.20
2022-12-23T00:03:32.991Z,91.20
2022-12-23T00:06:36.833Z,91.20
2022-12-23T00:09:42.481Z,91.20
2022-12-23T00:12:59.402Z,91.20
2022-12-23T00:16:05.095Z,91.20
2022-12-23T00:19:08.842Z,91.20
2022-12-23T00:22:12.630Z,91.20
2022-12-23T00:25:18.248Z,91.20
2022-12-23T00:28:23.889Z,91.20
2022-12-23T00:31:27.981Z,91.20
2022-12-23T00:34:31.750Z,91.20
2022-12-23T00:37:35.474Z,91.20
2022-12-23T00:40:54.421Z,91.20
2022-12-23T00:43:58.288Z,91.20
2022-12-23T00:47:02.023Z,91.20
2022-12-23T00:50:04.309Z,91.20
2022-12-23T00:53:08.821Z,91.30
2022-12-23T00:56:14.562Z,91.30
2022-12-23T00:59:18.505Z,91.30
2022-12-23T01:02:35.240Z,91.30
2022-12-23T01:05:39.083Z,91.30
2022-12-23T01:08:43.243Z,91.20
2022-12-23T01:11:48.879Z,91.20
2022-12-23T01:14:52.647Z,91.30
2022-12-23T01:17:56.350Z,91.30
2022-12-23T01:21:04.253Z,91.30
2022-12-23T01:24:08.640Z,91.30
2022-12-23T01:27:14.287Z,91.30
2022-12-23T01:30:18.397Z,91.30
2022-12-23T01:33:22.127Z,91.30
2022-12-23T01:36:25.928Z,91.40
2022-12-23T01:39:29.684Z,91.30
2022-12-23T01:42:47.731Z,91.40
2022-12-23T01:45:51.835Z,91.40
2022-12-23T01:48:55.417Z,91.40
2022-12-23T01:51:59.165Z,91.40
2022-12-23T01:55:03.129Z,91.30
2022-12-23T01:58:10.857Z,91.40
2022-12-23T02:01:28.639Z,91.40
2022-12-23T02:04:32.523Z,91.30
2022-12-23T02:07:50.512Z,91.30
2022-12-23T02:11:20.192Z,91.40
2022-12-23T02:14:50.711Z,91.40
2022-12-23T02:18:06.974Z,91.70
2022-12-23T02:21:21.999Z,91.40
2022-12-23T02:24:52.887Z,91.40
2022-12-23T02:28:14.925Z,91.40
2022-12-23T02:31:27.176Z,91.40
2022-12-23T02:34:37.938Z,91.40
2022-12-23T02:37:51.757Z,91.40
2022-12-23T02:41:04.647Z,91.40
2022-12-23T02:44:15.091Z,91.40
2022-12-23T02:47:23.772Z,91.40
2022-12-23T02:50:33.549Z,91.70
2022-12-23T02:53:41.145Z,91.40
2022-12-23T02:56:48.946Z,91.40
2022-12-23T02:59:53.605Z,91.40
2022-12-23T03:02:59.577Z,91.40
2022-12-23T03:06:09.464Z,91.40
2022-12-23T03:09:22.872Z,91.40
2022-12-23T03:12:37.725Z,91.40
2022-12-23T03:15:49.666Z,91.40
2022-12-23T03:19:06.131Z,91.40
2022-12-23T03:22:17.677Z,91.40
2022-12-23T03:25:25.985Z,91.40
2022-12-23T03:28:35.448Z,91.30
2022-12-23T03:31:41.199Z,91.40
2022-12-23T03:34:51.437Z,91.40
2022-12-23T03:37:57.289Z,91.40
2022-12-23T03:41:06.984Z,91.40
2022-12-23T03:44:14.978Z,91.40
2022-12-23T03:47:23.811Z,91.40
2022-12-23T03:50:31.453Z,91.40
2022-12-23T03:53:39.519Z,91.40
2022-12-23T03:56:47.947Z,91.40
2022-12-23T03:59:52.788Z,91.40
2022-12-23T04:03:01.732Z,91.40
2022-12-23T04:06:12.580Z,91.40
2022-12-23T04:09:21.924Z,91.40
2022-12-23T04:12:29.887Z,91.40
2022-12-23T04:15:33.856Z,91.40
2022-12-23T04:18:37.360Z,91.40
2022-12-23T04:21:43.066Z,91.40
2022-12-23T04:24:46.909Z,91.40
2022-12-23T04:27:50.720Z,91.30
2022-12-23T04:30:54.529Z,91.30
2022-12-23T04:33:58.865Z,91.30
2022-12-23T04:37:04.547Z,91.30
2022-12-23T04:40:09.572Z,91.30
2022-12-23T04:43:13.322Z,91.30
2022-12-23T04:46:17.107Z,91.30
2022-12-23T04:49:20.865Z,91.40
2022-12-23T04:52:26.629Z,91.30
2022-12-23T04:55:30.362Z,91.30
2022-12-23T04:58:34.174Z,91.30
2022-12-23T05:01:38.036Z,91.30
2022-12-23T05:04:42.318Z,91.40
2022-12-23T05:07:51.232Z,91.30
2022-12-23T05:10:54.931Z,91.40
2022-12-23T05:13:58.700Z,91.30
2022-12-23T05:17:07.379Z,91.30
2022-12-23T05:20:12.506Z,91.30
2022-12-23T05:23:18.200Z,91.40
2022-12-23T05:26:22.057Z,91.30
2022-12-23T05:29:25.797Z,91.40
2022-12-23T05:32:29.486Z,91.40
2022-12-23T05:35:33.217Z,91.40
2022-12-23T05:38:38.938Z,91.40
2022-12-23T05:41:42.707Z,91.40
2022-12-23T05:44:46.475Z,91.30
2022-12-23T05:47:50.189Z,91.30
2022-12-23T05:50:54.601Z,91.30
2022-12-23T05:54:00.369Z,91.30
2022-12-23T05:57:04.169Z,91.30
2022-12-23T06:00:09.674Z,91.30
2022-12-23T06:03:16.320Z,91.30
2022-12-23T06:06:20.192Z,91.30
2022-12-23T06:09:25.854Z,91.30
2022-12-23T06:12:29.586Z,91.40
2022-12-23T06:15:33.382Z,91.30
2022-12-23T06:18:37.138Z,91.30
2022-12-23T06:21:40.868Z,91.30
2022-12-23T06:24:46.774Z,91.30
2022-12-23T06:27:50.546Z,91.30
2022-12-23T06:30:55.187Z,91.30
2022-12-23T06:33:58.914Z,91.30
2022-12-23T06:37:02.719Z,91.30
2022-12-23T06:40:09.864Z,91.30
2022-12-23T06:43:13.777Z,91.30
2022-12-23T06:46:17.328Z,91.30
2022-12-23T06:49:21.099Z,91.30
2022-12-23T06:52:24.832Z,91.20
2022-12-23T06:55:30.535Z,91.20
2022-12-23T06:58:34.290Z,91.30
2022-12-23T07:01:38.163Z,91.20
2022-12-23T07:04:41.752Z,91.30
2022-12-23T07:07:45.485Z,91.20
2022-12-23T07:10:51.335Z,91.20
2022-12-23T07:13:55.256Z,91.20
2022-12-23T07:16:59.069Z,91.20
2022-12-23T07:20:03.272Z,91.30
2022-12-23T07:23:07.127Z,91.30
2022-12-23T07:26:12.772Z,91.30
2022-12-23T07:29:16.513Z,91.30
2022-12-23T07:32:20.285Z,91.30
2022-12-23T07:35:23.993Z,91.30
2022-12-23T07:38:27.958Z,91.20
2022-12-23T07:41:33.434Z,91.20
2022-12-23T07:44:43.059Z,91.20
2022-12-23T07:47:47.018Z,91.20
2022-12-23T07:50:50.827Z,91.20
2022-12-23T07:53:54.602Z,91.20
2022-12-23T07:57:00.323Z,91.20
2022-12-23T08:00:04.727Z,91.20
2022-12-23T08:03:16.249Z,91.20
2022-12-23T08:06:19.832Z,91.20
2022-12-23T08:09:23.560Z,91.20
2022-12-23T08:12:29.191Z,91.20
2022-12-23T08:15:32.959Z,91.20
2022-12-23T08:18:38.411Z,91.30
2022-12-23T08:21:42.169Z,91.20
2022-12-23T08:24:45.874Z,91.20
2022-12-23T08:27:52.578Z,91.30
2022-12-23T08:30:56.672Z,91.20
2022-12-23T08:34:01.923Z,91.20
2022-12-23T08:37:05.816Z,91.30
2022-12-23T08:40:10.283Z,91.30
2022-12-23T08:43:15.992Z,91.30
2022-12-23T08:46:20.260Z,91.20
2022-12-23T08:49:24.620Z,91.20
2022-12-23T08:52:29.274Z,91.30
2022-12-23T08:55:33.073Z,91.30
2022-12-23T08:58:41.241Z,91.30
2022-12-23T09:01:45.178Z,91.30
2022-12-23T09:04:49.051Z,91.30
2022-12-23T09:07:52.765Z,91.30
2022-12-23T09:10:56.616Z,91.30
2022-12-23T09:14:03.923Z,91.30
2022-12-23T09:17:07.765Z,91.30
2022-12-23T09:20:12.454Z,91.30
2022-12-23T09:23:16.214Z,91.30
2022-12-23T09:26:22.357Z,91.30
2022-12-23T09:29:28.102Z,91.60
2022-12-23T09:32:33.077Z,91.30
2022-12-23T09:35:36.797Z,91.30
2022-12-23T09:38:40.454Z,91.30
2022-12-23T09:42:07.358Z,91.30
2022-12-23T09:45:21.249Z,91.30
2022-12-23T09:48:28.229Z,91.30
2022-12-23T09:51:32.762Z,91.30
2022-12-23T09:54:43.039Z,91.30
2022-12-23T09:57:56.096Z,91.30
2022-12-23T10:01:15.274Z,91.30
2022-12-23T10:04:43.287Z,91.30
2022-12-23T10:07:50.998Z,91.30
2022-12-23T10:10:59.689Z,91.60
2022-12-23T10:14:11.258Z,91.30
2022-12-23T10:17:27.141Z,91.30
2022-12-23T10:20:39.179Z,91.30
2022-12-23T10:23:48.532Z,91.40
2022-12-23T10:26:55.373Z,91.40
2022-12-23T10:30:20.064Z,91.40
2022-12-23T10:33:36.124Z,91.30
2022-12-23T10:36:46.290Z,91.40
2022-12-23T10:40:09.945Z,91.40
2022-12-23T10:43:34.403Z,91.30
2022-12-23T10:46:41.299Z,91.30
2022-12-23T10:49:57.653Z,91.40
2022-12-23T10:53:05.835Z,91.30
2022-12-23T10:56:10.275Z,91.30
2022-12-23T10:59:17.003Z,91.30
2022-12-23T11:02:44.167Z,91.40
2022-12-23T11:05:52.863Z,91.40
2022-12-23T11:08:57.982Z,91.40
2022-12-23T11:12:03.839Z,91.40
2022-12-23T11:15:25.707Z,91.40
2022-12-23T11:18:29.393Z,91.40
2022-12-23T11:21:35.849Z,91.40
2022-12-23T11:24:43.295Z,91.40
2022-12-23T11:27:48.179Z,91.30
2022-12-23T11:30:57.382Z,91.30
2022-12-23T11:34:03.410Z,91.30
2022-12-23T11:37:24.365Z,91.40
2022-12-23T11:40:30.257Z,91.40
2022-12-23T11:43:35.204Z,91.40
2022-12-23T11:46:39.039Z,91.40
2022-12-23T11:49:49.792Z,91.30
2022-12-23T11:53:02.622Z,91.40
2022-12-23T11:56:09.313Z,91.30
2022-12-23T11:59:34.238Z,91.40
2022-12-23T12:02:42.447Z,91.40
2022-12-23T12:05:51.165Z,91.40
2022-12-23T12:09:00.395Z,91.40
2022-12-23T12:12:08.792Z,91.40
2022-12-23T12:15:27.989Z,91.40
2022-12-23T12:18:32.555Z,91.40
2022-12-23T12:21:40.496Z,91.40
2022-12-23T12:24:54.323Z,91.40
2022-12-23T12:28:02.010Z,91.40
2022-12-23T12:31:14.177Z,91.30
2022-12-23T12:34:31.580Z,91.30
2022-12-23T12:37:39.664Z,91.30
2022-12-23T12:40:50.385Z,91.40
2022-12-23T12:44:03.111Z,91.30
2022-12-23T12:47:44.743Z,91.40
2022-12-23T12:50:45.720Z,91.40
2022-12-23T12:54:04.717Z,91.40
2022-12-23T12:57:16.491Z,91.40
2022-12-23T13:00:22.012Z,91.40
2022-12-23T13:03:47.616Z,91.40
2022-12-23T13:07:02.761Z,91.40
2022-12-23T13:10:17.503Z,91.40
2022-12-23T13:13:33.726Z,91.50
2022-12-23T13:16:46.135Z,91.50
2022-12-23T13:19:57.562Z,91.50
2022-12-23T13:23:42.252Z,91.50
2022-12-23T13:26:53.523Z,91.50
2022-12-23T13:30:13.553Z,91.40
2022-12-23T13:33:27.575Z,91.50
2022-12-23T13:36:44.454Z,91.40
2022-12-23T13:39:57.860Z,91.50
2022-12-23T13:43:07.122Z,91.50
2022-12-23T13:46:22.203Z,91.50
2022-12-23T13:49:47.323Z,91.50
2022-12-23T13:53:08.094Z,91.50
2022-12-23T13:56:27.243Z,91.50
2022-12-23T13:59:40.491Z,91.50
2022-12-23T14:02:51.735Z,91.50
2022-12-23T14:05:55.631Z,91.50
2022-12-23T14:08:59.433Z,91.50
2022-12-23T14:12:22.837Z,91.50
2022-12-23T14:15:45.936Z,91.50
2022-12-23T14:19:41.800Z,91.50
2022-12-23T14:23:06.411Z,91.50
2022-12-23T14:26:31.774Z,91.50
2022-12-23T14:29:47.283Z,91.50
2022-12-23T14:32:53.680Z,91.50
2022-12-23T14:35:59.322Z,91.50
2022-12-23T14:39:38.998Z,91.50
2022-12-23T14:42:46.060Z,91.60
2022-12-23T14:45:51.287Z,91.50
2022-12-23T14:49:38.827Z,91.50
2022-12-23T14:52:50.839Z,91.50
2022-12-23T14:56:12.642Z,91.50
2022-12-23T14:59:23.848Z,91.50
2022-12-23T15:02:34.675Z,91.50
2022-12-23T15:05:41.762Z,91.50
2022-12-23T15:08:47.386Z,91.50
2022-12-23T15:11:52.993Z,91.50
2022-12-23T15:15:00.810Z,91.50
2022-12-23T15:18:06.540Z,91.50
2022-12-23T15:21:13.494Z,91.50
2022-12-23T15:24:19.257Z,91.50
2022-12-23T15:27:28.393Z,91.50
2022-12-23T15:30:38.532Z,91.50
2022-12-23T15:37:12.374Z,91.50
2022-12-23T15:40:26.690Z,91.50
2022-12-23T15:43:31.151Z,91.60
2022-12-23T15:46:41.422Z,91.60
2022-12-23T15:49:45.326Z,91.50
2022-12-23T15:52:51.331Z,91.60
2022-12-23T15:55:55.254Z,91.50
2022-12-23T15:58:59.073Z,91.50
2022-12-23T16:02:58.373Z,91.60
2022-12-23T16:05:42.538Z,91.50
2022-12-23T16:08:47.988Z,91.60
2022-12-23T16:11:55.858Z,91.60
2022-12-23T16:15:01.569Z,91.60
2022-12-23T16:18:23.308Z,91.60
2022-12-23T16:21:31.381Z,91.60
2022-12-23T16:24:35.396Z,91.60
2022-12-23T16:27:41.846Z,91.60
2022-12-23T16:30:46.075Z,91.60
2022-12-23T16:33:54.921Z,91.60
2022-12-23T16:36:58.618Z,91.70
2022-12-23T16:40:04.555Z,91.60
2022-12-23T16:43:08.405Z,91.60
2022-12-23T16:46:16.947Z,91.60
2022-12-23T16:49:29.576Z,91.60
2022-12-23T16:52:36.892Z,91.60
2022-12-23T16:55:46.234Z,91.60
2022-12-23T16:58:54.122Z,91.60
2022-12-23T17:02:03.115Z,91.60
2022-12-23T17:05:11.999Z,91.60
2022-12-23T17:08:16.136Z,91.60
2022-12-23T17:11:23.020Z,91.70
2022-12-23T17:14:27.296Z,91.70
2022-12-23T17:17:31.045Z,91.70
2022-12-23T17:20:36.695Z,91.70
2022-12-23T17:23:40.926Z,91.70
2022-12-23T17:26:45.424Z,91.70
2022-12-23T17:29:49.200Z,91.70
2022-12-23T17:32:55.886Z,91.70
2022-12-23T17:36:02.004Z,91.70
2022-12-23T17:39:05.959Z,91.70
2022-12-23T17:42:18.865Z,91.70
2022-12-23T17:45:29.339Z,91.60
2022-12-23T17:48:33.192Z,91.60
2022-12-23T17:51:40.895Z,91.70
2022-12-23T17:54:46.053Z,91.70
2022-12-23T17:57:50.153Z,91.70
2022-12-23T18:00:54.032Z,91.70
2022-12-23T18:03:58.832Z,91.70
2022-12-23T18:07:04.500Z,91.70
2022-12-23T18:10:10.982Z,91.70
2022-12-23T18:13:18.066Z,91.70
2022-12-23T18:16:22.112Z,91.70
2022-12-23T18:19:26.386Z,91.70
2022-12-23T18:22:32.468Z,91.70
2022-12-23T18:25:36.248Z,91.70
2022-12-23T18:28:39.969Z,91.70
2022-12-23T18:31:51.646Z,91.70
2022-12-23T18:34:56.545Z,91.70
2022-12-23T18:38:02.898Z,91.70
2022-12-23T18:41:06.650Z,91.60
2022-12-23T18:44:19.244Z,91.70
2022-12-23T18:47:22.968Z,91.70
2022-12-23T18:50:27.620Z,91.70
2022-12-23T18:53:33.417Z,91.70
2022-12-23T18:56:37.386Z,91.70
2022-12-23T18:59:40.885Z,91.70
2022-12-23T19:02:45.159Z,91.70
2022-12-23T19:05:50.123Z,91.60
2022-12-23T19:08:55.814Z,91.60
2022-12-23T19:11:59.575Z,91.60
2022-12-23T19:15:03.849Z,91.60
2022-12-23T19:18:08.182Z,91.60
2022-12-23T19:21:11.958Z,91.60
2022-12-23T19:24:19.758Z,91.60
2022-12-23T19:27:23.569Z,91.60
2022-12-23T19:30:27.479Z,91.60
2022-12-23T19:33:31.087Z,91.70
2022-12-23T19:36:35.967Z,91.70
2022-12-23T19:39:41.907Z,91.60
2022-12-23T19:42:45.765Z,91.60
2022-12-23T19:45:58.056Z,92.00
2022-12-23T19:49:01.878Z,91.70
2022-12-23T19:52:06.362Z,91.60
2022-12-23T19:55:12.568Z,91.70
2022-12-23T19:58:16.381Z,91.70
2022-12-23T20:01:23.265Z,91.70
2022-12-23T20:04:27.151Z,91.70
2022-12-23T20:07:30.911Z,91.70
2022-12-23T20:10:36.652Z,91.70
2022-12-23T20:13:40.916Z,91.70
2022-12-23T20:16:47.680Z,91.70
2022-12-23T20:19:51.408Z,91.70
2022-12-23T20:22:55.184Z,91.70
2022-12-23T20:26:00.869Z,91.70
2022-12-23T20:29:04.900Z,91.70
2022-12-23T20:32:08.428Z,91.70
2022-12-23T20:35:12.483Z,91.70
2022-12-23T20:38:16.278Z,91.70
2022-12-23T20:41:24.206Z,91.70
2022-12-23T20:44:36.987Z,91.70
2022-12-23T20:47:41.157Z,91.70
2022-12-23T20:50:44.960Z,91.70
2022-12-23T20:53:48.677Z,91.70
2022-12-23T20:56:54.374Z,91.70
2022-12-23T20:59:58.143Z,91.70
2022-12-23T21:03:08.397Z,91.80
2022-12-23T21:06:14.006Z,91.70
2022-12-23T21:09:18.045Z,91.70
2022-12-23T21:12:23.764Z,91.70
2022-12-23T21:15:27.503Z,91.70
2022-12-23T21:18:31.620Z,91.70
2022-12-23T21:21:35.874Z,91.70
2022-12-23T21:24:39.734Z,91.70
2022-12-23T21:27:45.460Z,91.70
2022-12-23T21:30:49.199Z,91.80
2022-12-23T21:33:53.755Z,91.80
2022-12-23T21:36:57.596Z,91.90
2022-12-23T21:40:01.361Z,91.90
2022-12-23T21:43:08.936Z,91.90
2022-12-23T21:46:15.908Z,91.90
2022-12-23T21:49:21.549Z,91.90
2022-12-23T21:52:25.465Z,91.90
2022-12-23T21:55:29.236Z,92.00
2022-12-23T21:58:35.708Z,92.00
2022-12-23T22:01:39.763Z,92.00
2022-12-23T22:04:43.819Z,92.00
2022-12-23T22:07:47.620Z,92.00
2022-12-23T22:10:51.378Z,92.10
2022-12-23T22:13:58.382Z,92.10
2022-12-23T22:17:02.190Z,92.10
2022-12-23T22:20:07.093Z,92.10
2022-12-23T22:23:11.287Z,92.10
2022-12-23T22:26:22.312Z,92.10
2022-12-23T22:29:30.140Z,92.10
2022-12-23T22:32:37.747Z,92.20
2022-12-23T22:35:44.565Z,92.20
2022-12-23T22:38:52.239Z,92.20
2022-12-23T22:41:56.018Z,92.20
2022-12-23T22:45:01.775Z,92.10
2022-12-23T22:48:05.985Z,92.10
2022-12-23T22:51:13.223Z,92.20
2022-12-23T22:54:16.983Z,92.20
2022-12-23T22:57:20.716Z,92.20
2022-12-23T23:00:26.457Z,92.20
2022-12-23T23:03:30.550Z,92.20
2022-12-23T23:06:36.971Z,92.20
2022-12-23T23:09:41.206Z,92.20
2022-12-23T23:12:46.838Z,92.20
2022-12-23T23:15:52.625Z,92.20
2022-12-23T23:18:58.093Z,92.20
2022-12-23T23:22:01.895Z,92.20
2022-12-23T23:25:06.386Z,92.30
2022-12-23T23:28:11.159Z,92.20
2022-12-23T23:31:41.006Z,92.20
2022-12-23T23:34:41.472Z,92.20
2022-12-23T23:37:45.357Z,92.20
2022-12-23T23:40:49.138Z,92.20
2022-12-23T23:43:52.948Z,92.20
2022-12-23T23:46:58.795Z,92.20
2022-12-23T23:50:02.763Z,92.20
2022-12-23T23:53:06.549Z,92.20
2022-12-23T23:56:10.773Z,92.20
2022-12-23T23:59:14.538Z,92.20
